Allenstown, New Hampshire
Current Conditions -  °F | °C
As of 12:51 AM on Sunday 23 Nov 2014 (Local Time) from KCON Reporting Station
Broken Clouds Broken Clouds  
Wind Chill: 34°   Ceiling: 10000
Heat Index: 34°   Visibility: 10mi
Dew Point: 19°   Wind: 3mph
Humidity: 54%   Direction: 170°S
Pressure: 30.01"   Gusts: NA
Location:  43.1606°N, 71.4143°W
Report Text: KCON 230551Z AUTO 17003KT 10SM SCT037 BKN100 01/M07 A3001 RMK AO2 SLP167 T00111072 10039 20000 55000
Loading
Personal Weather Stations






























Interactive Weather Map New forecast layout! Learn more

10-Day Weather Forecast

Advertisements
Track Severe Weather on mobile